createdAt,value
2019-01-15T00:00:31.768Z,0.00
2019-01-15T00:01:31.105Z,0.00
2019-01-15T00:02:31.621Z,0.00
2019-01-15T00:03:31.689Z,0.00
2019-01-15T00:04:31.738Z,0.00
2019-01-15T00:05:31.629Z,0.00
2019-01-15T00:06:31.633Z,0.00
2019-01-15T00:07:31.972Z,0.00
2019-01-15T00:08:31.688Z,0.00
2019-01-15T00:09:31.622Z,0.00
2019-01-15T00:10:31.687Z,0.00
2019-01-15T00:11:31.686Z,0.00
2019-01-15T00:12:31.938Z,0.00
2019-01-15T00:13:31.223Z,0.00
2019-01-15T00:14:31.202Z,0.00
2019-01-15T00:15:32.118Z,0.00
2019-01-15T00:16:31.149Z,0.00
2019-01-15T00:17:31.593Z,0.00
2019-01-15T00:18:31.184Z,0.00
2019-01-15T00:19:32.886Z,0.00
2019-01-15T00:20:31.153Z,0.00
2019-01-15T00:21:31.122Z,0.00
2019-01-15T00:22:31.042Z,0.00
2019-01-15T00:23:31.127Z,0.00
2019-01-15T00:24:31.095Z,0.00
2019-01-15T00:25:31.063Z,0.00
2019-01-15T00:26:31.064Z,0.00
2019-01-15T00:27:30.859Z,0.00
2019-01-15T00:28:31.333Z,0.00
2019-01-15T00:29:31.158Z,0.00
2019-01-15T00:30:31.160Z,0.00
2019-01-15T00:31:31.185Z,0.00
2019-01-15T00:32:31.095Z,0.00
2019-01-15T00:33:31.185Z,0.00
2019-01-15T00:34:31.190Z,0.00
2019-01-15T00:35:31.122Z,0.00
2019-01-15T00:36:31.183Z,0.00
2019-01-15T00:37:31.206Z,0.00
2019-01-15T00:38:31.195Z,0.00
2019-01-15T00:39:31.197Z,0.00
2019-01-15T00:40:31.197Z,0.00
2019-01-15T00:41:31.216Z,0.00
2019-01-15T00:42:31.246Z,0.00
2019-01-15T00:43:31.215Z,0.00
2019-01-15T00:44:31.272Z,0.00
2019-01-15T00:45:31.304Z,0.00
2019-01-15T00:46:31.288Z,0.00
2019-01-15T00:47:31.321Z,0.00
2019-01-15T00:48:31.260Z,0.00
2019-01-15T00:49:31.332Z,0.00
2019-01-15T00:50:31.248Z,0.00
2019-01-15T00:51:31.199Z,0.00
2019-01-15T00:52:31.192Z,0.00
2019-01-15T00:53:31.188Z,0.00
2019-01-15T00:54:31.106Z,0.00
2019-01-15T00:55:31.201Z,0.00
2019-01-15T00:56:31.191Z,0.00
2019-01-15T00:57:31.118Z,0.00
2019-01-15T00:58:31.640Z,0.00
2019-01-15T00:59:31.230Z,0.00
2019-01-15T01:00:31.615Z,0.00
2019-01-15T01:01:30.630Z,0.00
2019-01-15T01:02:31.189Z,0.00
2019-01-15T01:03:31.245Z,0.00
2019-01-15T01:04:31.608Z,0.00
2019-01-15T01:05:30.789Z,0.00
2019-01-15T01:06:31.191Z,0.00
2019-01-15T01:07:31.266Z,0.00
2019-01-15T01:08:31.151Z,0.00
2019-01-15T01:09:31.205Z,0.00
2019-01-15T01:10:31.202Z,0.00
2019-01-15T01:11:31.259Z,0.00
2019-01-15T01:12:31.045Z,0.00
2019-01-15T01:13:32.662Z,0.00
2019-01-15T01:14:32.717Z,0.00
2019-01-15T01:15:30.671Z,0.00
2019-01-15T01:16:30.643Z,0.00
2019-01-15T01:17:30.631Z,0.00
2019-01-15T01:18:30.685Z,0.00
2019-01-15T01:19:30.641Z,0.00
2019-01-15T01:20:30.681Z,0.00
2019-01-15T01:21:30.633Z,0.00
2019-01-15T01:22:30.934Z,0.00
2019-01-15T01:23:31.191Z,0.00
2019-01-15T01:24:30.684Z,0.00
2019-01-15T01:25:31.119Z,0.00
2019-01-15T01:26:30.550Z,0.00
2019-01-15T01:27:30.684Z,0.00
2019-01-15T01:28:30.639Z,0.00
2019-01-15T01:29:30.646Z,0.00
2019-01-15T01:30:30.654Z,0.00
2019-01-15T01:31:30.709Z,0.00
2019-01-15T01:32:30.687Z,0.00
2019-01-15T01:33:30.798Z,0.00
2019-01-15T01:34:30.716Z,0.00
2019-01-15T01:35:30.647Z,0.00
2019-01-15T01:36:30.664Z,0.00
2019-01-15T01:37:30.702Z,0.00
2019-01-15T01:38:30.700Z,0.00
2019-01-15T01:39:30.771Z,0.00
2019-01-15T01:40:30.721Z,0.00
2019-01-15T01:41:30.719Z,0.00
2019-01-15T01:42:30.767Z,0.00
2019-01-15T01:43:30.696Z,0.00
2019-01-15T01:44:30.227Z,0.00
2019-01-15T01:45:30.691Z,0.00
2019-01-15T01:46:30.696Z,0.00
2019-01-15T01:47:30.673Z,0.00
2019-01-15T01:48:30.706Z,0.00
2019-01-15T01:49:30.733Z,0.00
2019-01-15T01:50:30.646Z,0.00
2019-01-15T01:51:30.886Z,0.00
2019-01-15T01:52:30.694Z,0.00
2019-01-15T01:53:30.739Z,0.00
2019-01-15T01:54:30.752Z,0.00
2019-01-15T01:55:30.695Z,0.00
2019-01-15T01:56:30.784Z,0.00
2019-01-15T01:57:30.702Z,0.00
2019-01-15T01:58:31.136Z,0.00
2019-01-15T01:59:30.213Z,0.00
2019-01-15T02:00:30.714Z,0.00
2019-01-15T02:01:30.744Z,0.00
2019-01-15T02:02:30.693Z,0.00
2019-01-15T02:03:30.686Z,0.00
2019-01-15T02:04:30.695Z,0.00
2019-01-15T02:06:30.688Z,0.00
2019-01-15T02:07:30.688Z,0.00
2019-01-15T02:08:30.675Z,0.00
2019-01-15T02:09:30.882Z,0.00
2019-01-15T02:10:30.870Z,0.00
2019-01-15T02:11:30.845Z,0.00
2019-01-15T02:12:36.656Z,0.00
2019-01-15T02:13:36.480Z,0.00
2019-01-15T02:14:30.704Z,0.00
2019-01-15T02:15:30.803Z,0.00
2019-01-15T02:16:30.884Z,0.00
2019-01-15T02:17:31.658Z,0.00
2019-01-15T02:18:30.582Z,0.00
2019-01-15T02:19:30.173Z,0.00
2019-01-15T02:21:29.972Z,0.00
2019-01-15T02:22:30.019Z,0.00
2019-01-15T02:23:29.930Z,0.00
2019-01-15T02:24:30.091Z,0.00
2019-01-15T02:25:30.708Z,0.00
2019-01-15T02:26:30.405Z,0.00
2019-01-15T02:27:30.892Z,0.00
2019-01-15T02:28:30.207Z,0.00
2019-01-15T02:29:30.116Z,0.00
2019-01-15T02:30:30.170Z,0.00
2019-01-15T02:31:30.138Z,0.00
2019-01-15T02:32:30.274Z,0.00
2019-01-15T02:33:30.185Z,0.00
2019-01-15T02:34:30.286Z,0.00
2019-01-15T02:35:30.221Z,0.00
2019-01-15T02:36:30.226Z,0.00
2019-01-15T02:37:30.286Z,0.00
2019-01-15T02:38:30.208Z,0.00
2019-01-15T02:39:30.195Z,0.00
2019-01-15T02:40:30.220Z,0.00
2019-01-15T02:41:30.147Z,0.00
2019-01-15T02:42:29.647Z,0.00
2019-01-15T02:43:29.730Z,0.00
2019-01-15T02:44:30.616Z,0.00
2019-01-15T02:45:30.657Z,0.00
2019-01-15T02:46:29.987Z,0.00
2019-01-15T02:48:30.316Z,0.00
2019-01-15T02:49:30.644Z,0.00
2019-01-15T02:50:30.658Z,0.00
2019-01-15T02:51:30.635Z,0.00
2019-01-15T02:52:29.806Z,0.00
2019-01-15T02:53:30.183Z,0.00
2019-01-15T02:54:30.107Z,0.00
2019-01-15T02:55:30.208Z,0.00
2019-01-15T02:56:30.154Z,0.00
2019-01-15T02:57:30.206Z,0.00
2019-01-15T02:58:30.210Z,0.00
2019-01-15T02:59:30.159Z,0.00
2019-01-15T03:00:30.174Z,0.00
2019-01-15T03:01:30.165Z,0.00
2019-01-15T03:02:30.196Z,0.00
2019-01-15T03:03:30.293Z,0.00
2019-01-15T03:04:30.122Z,0.00
2019-01-15T03:05:30.265Z,0.00
2019-01-15T03:06:36.140Z,0.00
2019-01-15T03:07:30.162Z,0.00
2019-01-15T03:08:29.810Z,0.00
2019-01-15T03:09:30.017Z,0.00
2019-01-15T03:10:30.722Z,0.00
2019-01-15T03:12:35.733Z,0.00
2019-01-15T03:13:30.173Z,0.00
2019-01-15T03:14:35.612Z,0.00
2019-01-15T03:15:30.435Z,0.00
2019-01-15T03:16:29.811Z,0.00
2019-01-15T03:17:30.438Z,0.00
2019-01-15T03:18:30.188Z,0.00
2019-01-15T03:19:29.925Z,0.00
2019-01-15T03:20:30.412Z,0.00
2019-01-15T03:21:29.836Z,0.00
2019-01-15T03:22:29.706Z,0.00
2019-01-15T03:23:30.103Z,0.00
2019-01-15T03:24:29.200Z,0.00
2019-01-15T03:25:29.664Z,0.00
2019-01-15T03:26:29.625Z,0.00
2019-01-15T03:27:29.903Z,0.00
2019-01-15T03:28:29.256Z,0.00
2019-01-15T03:29:29.712Z,0.00
2019-01-15T03:30:29.727Z,0.00
2019-01-15T03:31:29.666Z,0.00
2019-01-15T03:32:29.700Z,0.00
2019-01-15T03:33:29.795Z,0.00
2019-01-15T03:34:29.716Z,0.00
2019-01-15T03:35:29.723Z,0.00
2019-01-15T03:36:29.665Z,0.00
2019-01-15T03:37:29.623Z,0.00
2019-01-15T03:38:30.158Z,0.00
2019-01-15T03:39:29.204Z,0.00
2019-01-15T03:40:29.655Z,0.00
2019-01-15T03:41:29.942Z,0.00
2019-01-15T03:42:29.685Z,0.00
2019-01-15T03:43:29.705Z,0.00
2019-01-15T03:44:29.704Z,0.00
2019-01-15T03:45:29.789Z,0.00
2019-01-15T03:46:29.102Z,0.00
2019-01-15T03:47:29.682Z,0.00
2019-01-15T03:48:29.715Z,0.00
2019-01-15T03:49:29.722Z,0.00
2019-01-15T03:50:29.782Z,0.00
2019-01-15T03:51:30.452Z,0.00
2019-01-15T03:52:29.634Z,0.00
2019-01-15T03:53:29.727Z,0.00
2019-01-15T03:54:29.753Z,0.00
2019-01-15T03:55:30.158Z,0.00
2019-01-15T03:56:29.695Z,0.00
2019-01-15T03:57:29.748Z,0.00
2019-01-15T03:58:29.790Z,0.00
2019-01-15T03:59:29.724Z,0.00
2019-01-15T04:00:29.511Z,0.00
2019-01-15T04:01:29.646Z,0.00
2019-01-15T04:02:29.112Z,0.00
2019-01-15T04:03:30.156Z,0.00
2019-01-15T04:04:29.117Z,0.00
2019-01-15T04:05:29.133Z,0.00
2019-01-15T04:06:29.148Z,0.00
2019-01-15T04:07:29.069Z,0.00
2019-01-15T04:08:29.344Z,0.00
2019-01-15T04:09:30.199Z,0.00
2019-01-15T04:10:29.165Z,0.00
2019-01-15T04:11:29.250Z,0.00
2019-01-15T04:12:28.616Z,0.00
2019-01-15T04:13:30.156Z,0.00
2019-01-15T04:14:29.458Z,0.00
2019-01-15T04:15:29.620Z,0.00
2019-01-15T04:16:29.012Z,0.00
2019-01-15T04:17:28.974Z,0.00
2019-01-15T04:18:29.222Z,0.00
2019-01-15T04:19:29.247Z,0.00
2019-01-15T04:20:29.201Z,0.00
2019-01-15T04:21:29.184Z,0.00
2019-01-15T04:22:29.137Z,0.00
2019-01-15T04:23:29.204Z,0.00
2019-01-15T04:25:29.328Z,0.00
2019-01-15T04:26:29.156Z,0.00
2019-01-15T04:27:29.331Z,0.00
2019-01-15T04:28:29.217Z,0.00
2019-01-15T04:29:29.126Z,0.00
2019-01-15T04:30:29.305Z,0.00
2019-01-15T04:31:29.200Z,0.00
2019-01-15T04:32:29.219Z,0.00
2019-01-15T04:33:28.643Z,0.00
2019-01-15T04:34:29.309Z,0.00
2019-01-15T04:35:29.195Z,0.00
2019-01-15T04:36:29.199Z,0.00
2019-01-15T04:37:29.240Z,0.00
2019-01-15T04:38:29.661Z,0.00
2019-01-15T04:39:28.995Z,0.00
2019-01-15T04:40:28.922Z,0.00
2019-01-15T04:41:28.948Z,0.00
2019-01-15T04:42:29.118Z,0.00
2019-01-15T04:43:28.964Z,0.00
2019-01-15T04:44:28.979Z,0.00
2019-01-15T04:45:28.615Z,0.00
2019-01-15T04:46:29.663Z,0.00
2019-01-15T04:47:29.204Z,0.00
2019-01-15T04:48:29.211Z,0.00
2019-01-15T04:49:29.237Z,0.00
2019-01-15T04:50:29.211Z,0.00
2019-01-15T04:51:29.213Z,0.00
2019-01-15T04:52:29.662Z,0.00
2019-01-15T04:53:28.701Z,0.00
2019-01-15T04:54:29.211Z,0.00
2019-01-15T04:55:29.639Z,0.00
2019-01-15T04:56:29.206Z,0.00
2019-01-15T04:57:29.156Z,0.00
2019-01-15T04:58:30.739Z,0.00
2019-01-15T04:59:30.734Z,0.00
2019-01-15T05:00:28.642Z,0.00
2019-01-15T05:01:29.114Z,0.00
2019-01-15T05:02:28.705Z,0.00
2019-01-15T05:03:28.640Z,0.00
2019-01-15T05:04:28.652Z,0.00
2019-01-15T05:05:28.668Z,0.00
2019-01-15T05:06:28.809Z,0.00
2019-01-15T05:07:28.958Z,0.00
2019-01-15T05:08:28.862Z,0.00
2019-01-15T05:09:29.099Z,0.00
2019-01-15T05:10:28.699Z,0.00
2019-01-15T05:11:28.668Z,0.00
2019-01-15T05:12:43.208Z,0.00
2019-01-15T05:13:29.120Z,0.00
2019-01-15T05:14:28.365Z,0.00
2019-01-15T05:15:28.433Z,0.00
2019-01-15T05:16:28.665Z,0.00
2019-01-15T05:17:29.076Z,0.00
2019-01-15T05:18:28.404Z,0.00
2019-01-15T05:19:29.162Z,0.00
2019-01-15T05:20:28.716Z,0.00
2019-01-15T05:21:29.138Z,0.00
2019-01-15T05:22:27.644Z,0.00
2019-01-15T05:23:28.662Z,0.00
2019-01-15T05:24:28.684Z,0.00
2019-01-15T05:25:28.457Z,0.00
2019-01-15T05:26:28.402Z,0.00
2019-01-15T05:27:29.179Z,0.00
2019-01-15T05:28:28.707Z,0.00
2019-01-15T05:29:29.180Z,0.00
2019-01-15T05:30:28.702Z,0.00
2019-01-15T05:31:28.683Z,0.00
2019-01-15T05:32:28.746Z,0.00
2019-01-15T05:33:28.914Z,0.00
2019-01-15T05:34:28.908Z,0.00
2019-01-15T05:35:28.008Z,0.00
2019-01-15T05:36:28.342Z,0.00
2019-01-15T05:37:28.118Z,0.00
2019-01-15T05:38:29.169Z,0.00
2019-01-15T05:39:28.811Z,0.00
2019-01-15T05:40:29.102Z,0.00
2019-01-15T05:41:28.205Z,0.00
2019-01-15T05:42:28.696Z,0.00
2019-01-15T05:43:35.238Z,0.00
2019-01-15T05:44:34.684Z,0.00
2019-01-15T05:45:28.812Z,0.00
2019-01-15T05:46:28.699Z,0.00
2019-01-15T05:47:29.160Z,0.00
2019-01-15T05:48:28.469Z,0.00
2019-01-15T05:49:28.601Z,0.00
2019-01-15T05:50:28.706Z,0.00
2019-01-15T05:51:28.688Z,0.00
2019-01-15T05:52:28.675Z,0.00
2019-01-15T05:53:29.139Z,0.00
2019-01-15T05:54:28.643Z,0.00
2019-01-15T05:55:30.153Z,0.00
2019-01-15T05:56:28.155Z,0.00
2019-01-15T05:57:28.202Z,0.00
2019-01-15T05:58:30.216Z,0.00
2019-01-15T05:59:30.202Z,0.00
2019-01-15T06:00:28.466Z,0.00
2019-01-15T06:01:28.660Z,0.00
2019-01-15T06:02:28.012Z,0.00
2019-01-15T06:03:28.452Z,0.00
2019-01-15T06:04:29.176Z,0.00
2019-01-15T06:05:28.187Z,0.00
2019-01-15T06:06:28.410Z,0.00
2019-01-15T06:07:33.580Z,0.00
2019-01-15T06:08:27.950Z,4.00
2019-01-15T06:09:28.228Z,4.00
2019-01-15T06:10:28.840Z,0.00
2019-01-15T06:11:28.225Z,0.00
2019-01-15T06:12:28.214Z,4.00
2019-01-15T06:13:27.727Z,4.00
2019-01-15T06:14:28.621Z,4.00
2019-01-15T06:15:28.664Z,4.00
2019-01-15T06:16:28.629Z,4.00
2019-01-15T06:17:28.643Z,4.00
2019-01-15T06:18:28.637Z,4.00
2019-01-15T06:19:28.375Z,4.00
2019-01-15T06:20:27.836Z,4.00
2019-01-15T06:21:28.135Z,4.00
2019-01-15T06:22:28.160Z,4.00
2019-01-15T06:23:28.140Z,4.00
2019-01-15T06:24:27.990Z,4.00
2019-01-15T06:25:28.156Z,4.00
2019-01-15T06:26:28.621Z,4.00
2019-01-15T06:27:29.687Z,4.00
2019-01-15T06:28:28.191Z,4.00
2019-01-15T06:29:28.251Z,4.00
2019-01-15T06:30:28.208Z,4.00
2019-01-15T06:31:28.252Z,4.00
2019-01-15T06:32:28.207Z,4.00
2019-01-15T06:33:28.266Z,4.00
2019-01-15T06:34:28.206Z,4.00
2019-01-15T06:35:28.134Z,4.00
2019-01-15T06:36:28.621Z,4.00
2019-01-15T06:37:27.886Z,4.00
2019-01-15T06:38:27.880Z,4.00
2019-01-15T06:39:28.359Z,4.00
2019-01-15T06:40:27.703Z,4.00
2019-01-15T06:41:28.199Z,4.00
2019-01-15T06:42:28.664Z,4.00
2019-01-15T06:43:27.998Z,4.00
2019-01-15T06:44:28.665Z,4.00
2019-01-15T06:45:28.238Z,4.00
2019-01-15T06:46:28.658Z,4.00
2019-01-15T06:47:28.162Z,0.00
2019-01-15T06:48:28.216Z,0.00
2019-01-15T06:49:28.264Z,0.00
2019-01-15T06:50:30.674Z,4.00
2019-01-15T06:51:28.213Z,4.00
2019-01-15T06:52:28.047Z,4.00
2019-01-15T06:53:29.161Z,0.00
2019-01-15T06:54:28.209Z,0.00
2019-01-15T06:55:28.680Z,0.00
2019-01-15T06:56:30.180Z,0.00
2019-01-15T06:57:27.700Z,0.00
2019-01-15T06:58:28.236Z,0.00
2019-01-15T06:59:29.159Z,0.00
2019-01-15T07:00:27.945Z,0.00
2019-01-15T07:01:28.153Z,0.00
2019-01-15T07:02:27.700Z,0.00
2019-01-15T07:03:27.942Z,0.00
2019-01-15T07:04:27.574Z,0.00
2019-01-15T07:05:27.459Z,4.00
2019-01-15T07:06:27.705Z,4.00
2019-01-15T07:07:27.888Z,4.00
2019-01-15T07:08:27.574Z,0.00
2019-01-15T07:09:31.029Z,4.00
2019-01-15T07:10:27.747Z,4.00
2019-01-15T07:11:27.829Z,4.00
2019-01-15T07:12:28.378Z,8.00
2019-01-15T07:13:27.720Z,8.00
2019-01-15T07:14:27.743Z,8.00
2019-01-15T07:15:27.792Z,8.00
2019-01-15T07:16:28.154Z,8.00
2019-01-15T07:17:28.167Z,8.00
2019-01-15T07:18:27.690Z,8.00
2019-01-15T07:19:27.475Z,8.00
2019-01-15T07:20:27.581Z,12.00
2019-01-15T07:21:27.416Z,12.00
2019-01-15T07:22:27.509Z,16.00
2019-01-15T07:23:27.510Z,20.00
2019-01-15T07:24:27.623Z,24.00
2019-01-15T07:25:27.461Z,20.00
2019-01-15T07:26:28.164Z,24.00
2019-01-15T07:27:27.263Z,28.00
2019-01-15T07:28:28.160Z,28.00
2019-01-15T07:29:28.173Z,36.00
2019-01-15T07:30:27.533Z,48.00
2019-01-15T07:31:27.660Z,60.00
2019-01-15T07:32:27.590Z,44.00
2019-01-15T07:33:27.592Z,52.00
2019-01-15T07:34:27.555Z,64.00
2019-01-15T07:35:27.589Z,60.00
2019-01-15T07:36:27.584Z,76.00
2019-01-15T07:37:27.094Z,76.00
2019-01-15T07:38:27.571Z,80.00
2019-01-15T07:39:27.995Z,72.00
2019-01-15T07:40:28.169Z,80.00
2019-01-15T07:41:33.547Z,96.00
2019-01-15T07:42:27.561Z,108.00
2019-01-15T07:43:27.211Z,124.00
2019-01-15T07:44:27.766Z,136.00
2019-01-15T07:45:27.748Z,144.00
2019-01-15T07:46:27.220Z,180.00
2019-01-15T07:47:28.203Z,188.00
2019-01-15T07:48:27.133Z,164.00
2019-01-15T07:49:27.739Z,172.00
2019-01-15T07:50:28.166Z,196.00
2019-01-15T07:51:27.442Z,284.00
2019-01-15T07:52:27.519Z,264.00
2019-01-15T07:53:27.581Z,192.00
2019-01-15T07:54:27.713Z,200.00
2019-01-15T07:55:29.665Z,228.00
2019-01-15T07:56:29.672Z,256.00
2019-01-15T07:57:28.933Z,272.00
2019-01-15T07:58:27.934Z,236.00
2019-01-15T07:59:27.216Z,300.00
2019-01-15T08:00:27.349Z,332.00
2019-01-15T08:01:27.648Z,364.00
2019-01-15T08:02:27.356Z,376.00
2019-01-15T08:03:28.779Z,368.00
2019-01-15T08:04:33.431Z,428.00
2019-01-15T08:05:27.106Z,404.00
2019-01-15T08:06:27.840Z,416.00
2019-01-15T08:07:28.659Z,448.00
2019-01-15T08:08:27.688Z,504.00
2019-01-15T08:09:26.968Z,504.00
2019-01-15T08:10:26.938Z,556.00
2019-01-15T08:11:27.173Z,588.00
2019-01-15T08:12:26.987Z,644.00
2019-01-15T08:13:27.065Z,636.00
2019-01-15T08:14:26.968Z,704.00
2019-01-15T08:15:27.671Z,668.00
2019-01-15T08:16:27.187Z,696.00
2019-01-15T08:17:27.230Z,788.00
2019-01-15T08:18:27.669Z,748.00
2019-01-15T08:19:27.350Z,684.00
2019-01-15T08:20:27.656Z,680.00
2019-01-15T08:21:26.883Z,688.00
2019-01-15T08:22:26.982Z,680.00
2019-01-15T08:23:27.137Z,732.00
2019-01-15T08:24:26.459Z,768.00
2019-01-15T08:25:27.275Z,736.00
2019-01-15T08:26:27.201Z,900.00
2019-01-15T08:27:27.937Z,616.00
2019-01-15T08:28:27.237Z,588.00
2019-01-15T08:29:27.646Z,680.00
2019-01-15T08:30:26.998Z,840.00
2019-01-15T08:31:27.657Z,840.00
2019-01-15T08:32:26.957Z,764.00
2019-01-15T08:33:27.216Z,740.00
2019-01-15T08:34:27.647Z,676.00
2019-01-15T08:35:27.195Z,624.00
2019-01-15T08:36:28.603Z,552.00
2019-01-15T08:37:32.946Z,564.00
2019-01-15T08:38:27.167Z,588.00
2019-01-15T08:39:27.043Z,560.00
2019-01-15T08:40:26.995Z,504.00
2019-01-15T08:41:27.683Z,536.00
2019-01-15T08:42:26.569Z,508.00
2019-01-15T08:43:26.818Z,576.00
2019-01-15T08:44:28.836Z,660.00
2019-01-15T08:45:27.667Z,692.00
2019-01-15T08:46:27.686Z,808.00
2019-01-15T08:47:27.953Z,744.00
2019-01-15T08:48:27.677Z,832.00
2019-01-15T08:49:27.111Z,748.00
2019-01-15T08:50:27.179Z,676.00
2019-01-15T08:51:27.034Z,804.00
2019-01-15T08:52:26.998Z,644.00
2019-01-15T08:53:27.657Z,572.00
2019-01-15T08:54:27.203Z,516.00
2019-01-15T08:55:27.885Z,556.00
2019-01-15T08:56:28.757Z,480.00
2019-01-15T08:57:29.122Z,564.00
2019-01-15T08:58:27.077Z,484.00
2019-01-15T08:59:27.179Z,612.00
2019-01-15T09:00:26.694Z,700.00
2019-01-15T09:01:26.744Z,776.00
2019-01-15T09:02:26.800Z,732.00
2019-01-15T09:03:26.999Z,1032.00
2019-01-15T09:04:26.626Z,1096.00
2019-01-15T09:05:27.102Z,980.00
2019-01-15T09:06:29.163Z,996.00
2019-01-15T09:07:27.203Z,984.00
2019-01-15T09:08:27.181Z,984.00
2019-01-15T09:09:27.131Z,912.00
2019-01-15T09:10:28.011Z,1068.00
2019-01-15T09:11:27.157Z,1036.00
2019-01-15T09:12:26.447Z,1024.00
2019-01-15T09:13:27.239Z,788.00
2019-01-15T09:14:27.248Z,852.00
2019-01-15T09:15:27.185Z,840.00
2019-01-15T09:16:27.457Z,1232.00
2019-01-15T09:17:29.088Z,1288.00
2019-01-15T09:18:26.344Z,1748.00
2019-01-15T09:19:27.175Z,1532.00
2019-01-15T09:20:26.384Z,1212.00
2019-01-15T09:21:26.845Z,1420.00
2019-01-15T09:22:27.123Z,2032.00
2019-01-15T09:23:26.782Z,1820.00
2019-01-15T09:24:26.683Z,2032.00
2019-01-15T09:25:26.333Z,1792.00
2019-01-15T09:26:26.723Z,1556.00
2019-01-15T09:27:27.188Z,988.00
2019-01-15T09:28:26.224Z,836.00
2019-01-15T09:29:27.460Z,848.00
2019-01-15T09:30:26.853Z,1016.00
2019-01-15T09:31:26.747Z,980.00
2019-01-15T09:32:27.171Z,1168.00
2019-01-15T09:33:27.224Z,1160.00
2019-01-15T09:34:26.409Z,1100.00
2019-01-15T09:35:27.446Z,1188.00
2019-01-15T09:36:26.613Z,1044.00
2019-01-15T09:37:26.490Z,1156.00
2019-01-15T09:38:26.383Z,1272.00
2019-01-15T09:39:27.160Z,1032.00
2019-01-15T09:40:26.361Z,1016.00
2019-01-15T09:41:26.435Z,1036.00
2019-01-15T09:42:26.277Z,1092.00
2019-01-15T09:43:27.186Z,984.00
2019-01-15T09:44:26.341Z,820.00
2019-01-15T09:45:26.718Z,852.00
2019-01-15T09:46:26.335Z,840.00
2019-01-15T09:47:26.471Z,860.00
2019-01-15T09:48:26.727Z,752.00
2019-01-15T09:49:26.955Z,788.00
2019-01-15T09:50:26.753Z,868.00
2019-01-15T09:51:27.608Z,820.00
2019-01-15T09:52:26.728Z,836.00
2019-01-15T09:53:27.161Z,804.00
2019-01-15T09:54:27.167Z,1060.00
2019-01-15T09:55:26.581Z,916.00
2019-01-15T09:56:26.346Z,888.00
2019-01-15T09:57:27.199Z,960.00
2019-01-15T09:58:26.214Z,796.00
2019-01-15T09:59:25.497Z,976.00
2019-01-15T10:00:28.239Z,1084.00
2019-01-15T10:01:26.872Z,1064.00
2019-01-15T10:02:27.101Z,1148.00
2019-01-15T10:03:26.804Z,952.00
2019-01-15T10:04:27.049Z,908.00
2019-01-15T10:05:26.091Z,732.00
2019-01-15T10:06:26.490Z,836.00
2019-01-15T10:07:26.645Z,652.00
2019-01-15T10:08:28.676Z,872.00
2019-01-15T10:10:26.613Z,768.00
2019-01-15T10:11:26.341Z,1056.00
2019-01-15T10:12:26.686Z,1248.00
2019-01-15T10:13:25.752Z,1264.00
2019-01-15T10:14:26.466Z,1216.00
2019-01-15T10:15:26.623Z,980.00
2019-01-15T10:16:26.682Z,876.00
2019-01-15T10:17:25.920Z,804.00
2019-01-15T10:18:26.262Z,752.00
2019-01-15T10:19:28.697Z,792.00
2019-01-15T10:20:25.900Z,996.00
2019-01-15T10:21:26.062Z,908.00
2019-01-15T10:22:26.697Z,904.00
2019-01-15T10:23:28.712Z,812.00
2019-01-15T10:24:26.695Z,932.00
2019-01-15T10:25:26.021Z,832.00
2019-01-15T10:26:25.876Z,908.00
2019-01-15T10:27:26.286Z,932.00
2019-01-15T10:28:26.387Z,1048.00
2019-01-15T10:29:26.203Z,1100.00
2019-01-15T10:30:25.934Z,1204.00
2019-01-15T10:31:27.189Z,1388.00
2019-01-15T10:32:26.680Z,1256.00
2019-01-15T10:33:25.911Z,1028.00
2019-01-15T10:34:26.257Z,940.00
2019-01-15T10:35:26.688Z,748.00
2019-01-15T10:36:26.282Z,896.00
2019-01-15T10:37:26.267Z,900.00
2019-01-15T10:38:27.207Z,796.00
2019-01-15T10:39:26.509Z,836.00
2019-01-15T10:40:26.676Z,812.00
2019-01-15T10:41:26.962Z,740.00
2019-01-15T10:42:26.708Z,708.00
2019-01-15T10:43:26.070Z,696.00
2019-01-15T10:44:26.022Z,652.00
2019-01-15T10:45:26.028Z,608.00
2019-01-15T10:46:26.682Z,692.00
2019-01-15T10:47:26.708Z,916.00
2019-01-15T10:48:26.090Z,1188.00
2019-01-15T10:49:26.666Z,1424.00
2019-01-15T10:50:26.078Z,1340.00
2019-01-15T10:51:25.988Z,1308.00
2019-01-15T10:52:26.758Z,1332.00
2019-01-15T10:53:25.772Z,1452.00
2019-01-15T10:54:26.468Z,1516.00
2019-01-15T10:55:26.959Z,1504.00
2019-01-15T10:56:25.927Z,1512.00
2019-01-15T10:57:26.678Z,1512.00
2019-01-15T10:58:26.193Z,1528.00
2019-01-15T10:59:26.135Z,1472.00
2019-01-15T11:00:25.818Z,1524.00
2019-01-15T11:01:25.771Z,1536.00
2019-01-15T11:02:25.275Z,1492.00
2019-01-15T11:03:26.690Z,1532.00
2019-01-15T11:04:26.692Z,1428.00
2019-01-15T11:05:26.691Z,1352.00
2019-01-15T11:06:26.283Z,1272.00
2019-01-15T11:07:27.988Z,1140.00
2019-01-15T11:08:26.268Z,1192.00
2019-01-15T11:09:26.142Z,1188.00
2019-01-15T11:10:27.561Z,1296.00
2019-01-15T11:11:25.346Z,1244.00
2019-01-15T11:12:39.599Z,1188.00
2019-01-15T11:13:25.907Z,1188.00
2019-01-15T11:14:26.191Z,1160.00
2019-01-15T11:15:26.177Z,1224.00
2019-01-15T11:16:25.611Z,1188.00
2019-01-15T11:17:25.519Z,1168.00
2019-01-15T11:18:26.144Z,1208.00
2019-01-15T11:19:25.602Z,1196.00
2019-01-15T11:20:25.866Z,1308.00
2019-01-15T11:21:25.609Z,1420.00
2019-01-15T11:22:26.164Z,1504.00
2019-01-15T11:23:26.182Z,1448.00
2019-01-15T11:24:26.123Z,1416.00
2019-01-15T11:25:26.483Z,1956.00
2019-01-15T11:26:25.748Z,2336.00
2019-01-15T11:27:25.962Z,2628.00
2019-01-15T11:28:26.241Z,2716.00
2019-01-15T11:29:26.610Z,2668.00
2019-01-15T11:30:25.657Z,2356.00
2019-01-15T11:31:25.956Z,2492.00
2019-01-15T11:32:26.151Z,2572.00
2019-01-15T11:33:25.745Z,2432.00
2019-01-15T11:34:26.138Z,2440.00
2019-01-15T11:35:25.805Z,2208.00
2019-01-15T11:36:25.670Z,2072.00
2019-01-15T11:37:26.558Z,1916.00
2019-01-15T11:38:26.188Z,2092.00
2019-01-15T11:39:25.879Z,2124.00
2019-01-15T11:40:27.023Z,1604.00
2019-01-15T11:41:26.016Z,1704.00
2019-01-15T11:42:25.823Z,1672.00
2019-01-15T11:43:25.630Z,1252.00
2019-01-15T11:44:26.184Z,1172.00
2019-01-15T11:46:59.699Z,1328.00
2019-01-15T11:48:00.572Z,1360.00
2019-01-15T11:49:53.742Z,1416.00
2019-01-15T11:50:54.089Z,1416.00
2019-01-15T11:52:48.733Z,1556.00
2019-01-15T11:53:49.218Z,1564.00
2019-01-15T11:55:42.795Z,1248.00
2019-01-15T11:56:42.856Z,916.00
2019-01-15T11:58:38.169Z,760.00
2019-01-15T11:59:37.450Z,636.00
2019-01-15T12:01:30.917Z,688.00
2019-01-15T12:02:32.290Z,656.00
2019-01-15T12:04:25.797Z,496.00
2019-01-15T12:05:25.580Z,424.00
2019-01-15T12:06:26.096Z,388.00
2019-01-15T12:07:25.297Z,384.00
2019-01-15T12:08:25.665Z,412.00
2019-01-15T12:09:24.852Z,440.00
2019-01-15T12:10:25.163Z,564.00
2019-01-15T12:11:26.336Z,632.00
2019-01-15T12:12:25.561Z,696.00
2019-01-15T12:13:25.747Z,856.00
2019-01-15T12:14:24.820Z,1080.00
2019-01-15T12:15:25.854Z,1340.00
2019-01-15T12:16:25.380Z,1604.00
2019-01-15T12:17:25.387Z,1232.00
2019-01-15T12:18:26.325Z,1260.00
2019-01-15T12:19:25.289Z,1336.00
2019-01-15T12:20:25.336Z,2252.00
2019-01-15T12:21:25.951Z,2020.00
2019-01-15T12:22:25.821Z,1116.00
2019-01-15T12:23:25.886Z,1180.00
2019-01-15T12:24:24.919Z,984.00
2019-01-15T12:25:24.773Z,796.00
2019-01-15T12:26:25.857Z,1204.00
2019-01-15T12:27:25.478Z,1488.00
2019-01-15T12:28:25.619Z,1404.00
2019-01-15T12:29:25.349Z,1784.00
2019-01-15T12:30:27.326Z,1396.00
2019-01-15T12:31:26.177Z,1064.00
2019-01-15T12:32:25.021Z,788.00
2019-01-15T12:33:26.210Z,800.00
2019-01-15T12:34:25.119Z,724.00
2019-01-15T12:35:26.332Z,728.00
2019-01-15T12:36:26.339Z,692.00
2019-01-15T12:37:26.153Z,692.00
2019-01-15T12:38:27.171Z,772.00
2019-01-15T12:39:27.665Z,1056.00
2019-01-15T12:40:25.044Z,1864.00
2019-01-15T12:41:25.327Z,2628.00
2019-01-15T12:42:27.034Z,1408.00
2019-01-15T12:43:27.624Z,1440.00
2019-01-15T12:44:25.393Z,1052.00
2019-01-15T12:45:27.376Z,756.00
2019-01-15T12:46:25.605Z,880.00
2019-01-15T12:47:27.109Z,816.00
2019-01-15T12:48:25.237Z,832.00
2019-01-15T12:49:25.365Z,872.00
2019-01-15T12:50:25.817Z,848.00
2019-01-15T12:51:25.395Z,840.00
2019-01-15T12:52:25.615Z,768.00
2019-01-15T12:53:25.144Z,804.00
2019-01-15T12:54:25.224Z,776.00
2019-01-15T12:55:25.868Z,836.00
2019-01-15T12:56:25.188Z,836.00
2019-01-15T12:57:25.000Z,816.00
2019-01-15T12:58:25.845Z,668.00
2019-01-15T12:59:25.310Z,664.00
2019-01-15T13:00:25.369Z,576.00
2019-01-15T13:01:25.683Z,656.00
2019-01-15T13:02:27.471Z,756.00
2019-01-15T13:03:25.424Z,704.00
2019-01-15T13:04:25.810Z,724.00
2019-01-15T13:05:25.841Z,704.00